Time;durP1;ratioP1;P1;durP2;ratioP2;P2;SDS_P1;SDS_P2;PMS_P1;PMS_P2;Temp;Humidity;BMP_temperature;BMP_pressure;BME280_temperature;BME280_humidity;BME280_pressure;Samples;Min_cycle;Max_cycle;Signal;HPM_P1;HPM_P2
2023/06/04 00:02:04;;;;;;;;;;;;;;;25.99;21.83;98578.28;5090552;28;19956;-86
2023/06/04 00:04:30;;;;;;;;;;;;;;;25.92;21.42;98584.06;5092007;28;19919;-86
2023/06/04 00:06:56;;;;;;;;;;;;;;;25.90;21.62;98587.31;5093929;28;19916;-86
2023/06/04 00:09:22;;;;;;;;;;;;;;;25.89;21.08;98579.28;5088550;28;19927;-86
2023/06/04 00:11:48;;;;;;;;;;;;;;;25.98;21.24;98583.09;5089339;28;20003;-86
2023/06/04 00:14:14;;;;;;;;;;;;;;;26.02;21.35;98581.00;5092209;28;19967;-86
2023/06/04 00:16:40;;;;;;;;;;;;;;;26.06;20.90;98581.72;5092090;28;19916;-86
2023/06/04 00:19:06;;;;;;;;;;;;;;;25.68;21.54;98588.16;5093889;28;19992;-86
2023/06/04 00:21:32;;;;;;;;;;;;;;;25.84;21.50;98582.59;5093840;28;19947;-86
2023/06/04 00:23:59;;;;;;;;;;;;;;;25.96;21.01;98581.94;5093111;28;20398;-86
2023/06/04 00:26:25;;;;;;;;;;;;;;;25.60;21.29;98579.06;5093886;28;19955;-86
2023/06/04 00:28:51;;;;;;;;;;;;;;;25.34;21.92;98577.94;5098280;28;19920;-86
2023/06/04 00:31:17;;;;;;;;;;;;;;;25.11;22.25;98577.22;5098777;28;20011;-86
2023/06/04 00:33:43;;;;;;;;;;;;;;;25.16;22.42;98576.69;5090926;28;20376;-86
2023/06/04 00:36:09;;;;;;;;;;;;;;;24.99;22.18;98573.00;5079913;28;20268;-86
2023/06/04 00:38:35;;;;;;;;;;;;;;;25.05;22.44;98571.28;5092168;28;19924;-86
2023/06/04 00:41:01;;;;;;;;;;;;;;;25.25;22.18;98569.28;5100056;28;19927;-85
2023/06/04 00:43:27;;;;;;;;;;;;;;;25.52;22.00;98569.22;5090074;28;20287;-85
2023/06/04 00:45:54;;;;;;;;;;;;;;;25.25;22.27;98562.88;5092582;28;19920;-85
2023/06/04 00:48:20;;;;;;;;;;;;;;;25.22;22.38;98564.53;5093815;28;19927;-85
2023/06/04 00:50:47;;;;;;;;;;;;;;;25.05;22.51;98565.66;5094521;28;20049;-85
2023/06/04 00:53:13;;;;;;;;;;;;;;;24.96;22.77;98565.41;5084687;28;19973;-85
2023/06/04 00:55:39;;;;;;;;;;;;;;;25.15;22.11;98563.88;5091735;28;20337;-85
2023/06/04 00:58:05;;;;;;;;;;;;;;;25.30;21.93;98565.19;5091226;28;19974;-85
2023/06/04 01:00:32;;;;;;;;;;;;;;;25.21;22.11;98571.38;5090849;28;19924;-85
2023/06/04 01:03:02;;;;;;;;;;;;;;;24.42;23.18;98575.13;5095724;28;19920;-85
2023/06/04 01:05:29;;;;;;;;;;;;;;;23.98;23.69;98576.94;5092024;28;19912;-85
2023/06/04 01:07:57;;;;;;;;;;;;;;;24.60;23.35;98572.81;5104242;28;20294;-85
2023/06/04 01:10:23;;;;;;;;;;;;;;;24.69;23.46;98573.88;5092343;28;19920;-85
2023/06/04 01:12:49;;;;;;;;;;;;;;;24.91;23.04;98576.34;5088300;28;20610;-85
2023/06/04 01:15:15;;;;;;;;;;;;;;;24.69;23.40;98570.28;5098490;28;19920;-85
2023/06/04 01:17:46;;;;;;;;;;;;;;;24.82;23.06;98571.28;5078174;28;19935;-85
2023/06/04 01:20:39;;;;;;;;;;;;;;;24.88;22.88;98572.38;5073992;28;19916;-85
2023/06/04 01:23:18;;;;;;;;;;;;;;;25.17;22.48;98564.22;5095626;28;19920;-85
2023/06/04 01:25:49;;;;;;;;;;;;;;;25.33;22.24;98564.31;5077732;28;20014;-84
2023/06/04 01:28:16;;;;;;;;;;;;;;;25.30;22.24;98565.19;5091848;28;19916;-85
2023/06/04 01:30:48;;;;;;;;;;;;;;;25.45;22.11;98566.53;5096180;28;20299;-85
2023/06/04 01:33:18;;;;;;;;;;;;;;;25.53;21.94;98562.38;5093617;28;19920;-85
2023/06/04 01:35:44;;;;;;;;;;;;;;;25.62;21.84;98559.78;5091343;28;19920;-85
2023/06/04 01:38:10;;;;;;;;;;;;;;;25.66;21.75;98565.31;5098186;28;19920;-85
2023/06/04 01:40:37;;;;;;;;;;;;;;;25.73;21.97;98562.34;5093571;28;20024;-85
2023/06/04 01:43:03;;;;;;;;;;;;;;;25.59;21.71;98557.00;5086215;28;19938;-85
2023/06/04 01:45:29;;;;;;;;;;;;;;;25.53;22.45;98553.13;5090763;28;19920;-85
2023/06/04 01:47:56;;;;;;;;;;;;;;;25.44;22.50;98559.31;5087821;28;19985;-85
2023/06/04 01:50:22;;;;;;;;;;;;;;;25.48;22.35;98556.44;5092205;28;19916;-85
2023/06/04 01:52:49;;;;;;;;;;;;;;;25.51;22.31;98556.34;5090325;28;20375;-85
2023/06/04 01:55:16;;;;;;;;;;;;;;;25.18;22.83;98558.19;5101463;28;20007;-85
2023/06/04 01:57:43;;;;;;;;;;;;;;;25.00;22.67;98554.91;5096187;28;19924;-85
2023/06/04 02:00:10;;;;;;;;;;;;;;;25.32;22.59;98548.69;5086920;28;19920;-85
2023/06/04 02:02:37;;;;;;;;;;;;;;;25.40;22.01;98541.69;5094005;28;19924;-85
2023/06/04 02:05:03;;;;;;;;;;;;;;;25.47;21.98;98552.03;5098887;28;19947;-85
2023/06/04 02:07:31;;;;;;;;;;;;;;;25.47;22.05;98552.84;5096839;28;19928;-85
2023/06/04 02:09:57;;;;;;;;;;;;;;;25.51;22.38;98552.78;5098981;28;20675;-85
2023/06/04 02:12:23;;;;;;;;;;;;;;;25.33;22.54;98547.47;5091926;28;19926;-85
2023/06/04 02:14:49;;;;;;;;;;;;;;;24.71;23.55;98548.94;5095806;28;19944;-85
2023/06/04 02:17:16;;;;;;;;;;;;;;;24.98;22.91;98556.56;5093469;28;20384;-85
2023/06/04 02:19:49;;;;;;;;;;;;;;;25.07;23.02;98549.16;5091881;28;20351;-85
2023/06/04 02:22:16;;;;;;;;;;;;;;;24.98;23.12;98548.13;5094718;28;19931;-85
2023/06/04 02:24:42;;;;;;;;;;;;;;;24.87;22.95;98553.94;5090955;28;19920;-86
2023/06/04 02:27:09;;;;;;;;;;;;;;;25.17;23.34;98562.22;5095709;28;20379;-85
2023/06/04 02:29:35;;;;;;;;;;;;;;;25.17;23.21;98556.59;5093590;28;19963;-86
2023/06/04 02:32:02;;;;;;;;;;;;;;;25.16;23.13;98552.19;5098302;28;19928;-86
2023/06/04 02:34:28;;;;;;;;;;;;;;;25.40;22.78;98561.38;5095126;28;20033;-86
2023/06/04 02:36:54;;;;;;;;;;;;;;;25.26;22.70;98553.22;5095674;28;20372;-85
2023/06/04 02:39:20;;;;;;;;;;;;;;;24.68;23.20;98552.63;5096181;28;19990;-85
2023/06/04 02:41:46;;;;;;;;;;;;;;;24.64;23.88;98543.47;5094817;28;19920;-85
2023/06/04 02:44:12;;;;;;;;;;;;;;;24.58;23.65;98550.00;5104780;28;20020;-85
2023/06/04 02:46:38;;;;;;;;;;;;;;;24.76;23.63;98553.34;5095872;28;19920;-85
2023/06/04 02:49:05;;;;;;;;;;;;;;;24.90;23.56;98553.06;5091737;28;19920;-85
2023/06/04 02:51:32;;;;;;;;;;;;;;;25.19;22.98;98550.53;5086212;28;19920;-85
2023/06/04 02:53:58;;;;;;;;;;;;;;;25.52;22.75;98546.72;5085418;28;19924;-85
2023/06/04 02:56:25;;;;;;;;;;;;;;;25.44;22.85;98548.06;5094233;28;19916;-85
2023/06/04 02:58:53;;;;;;;;;;;;;;;25.51;22.50;98547.16;5094991;28;20020;-85
2023/06/04 03:01:23;;;;;;;;;;;;;;;25.75;22.75;98541.00;5095989;28;20279;-85
2023/06/04 03:03:49;;;;;;;;;;;;;;;25.88;22.86;98546.75;5086665;28;20345;-85
2023/06/04 03:06:15;;;;;;;;;;;;;;;25.89;22.43;98548.34;5104038;28;19919;-85
2023/06/04 03:08:42;;;;;;;;;;;;;;;25.97;22.79;98552.59;5097568;28;19927;-85
2023/06/04 03:11:08;;;;;;;;;;;;;;;25.68;23.06;98549.59;5102368;28;19928;-85
2023/06/04 03:13:35;;;;;;;;;;;;;;;25.52;23.08;98551.53;5098105;28;19995;-85
2023/06/04 03:16:01;;;;;;;;;;;;;;;25.12;23.98;98556.28;5098872;28;19920;-85
2023/06/04 03:18:30;;;;;;;;;;;;;;;25.40;23.46;98552.94;5091374;28;20031;-85
2023/06/04 03:20:57;;;;;;;;;;;;;;;25.66;23.39;98556.88;5091289;28;20376;-85
2023/06/04 03:23:23;;;;;;;;;;;;;;;25.85;23.07;98565.31;5092271;28;19920;-85
2023/06/04 03:25:49;;;;;;;;;;;;;;;26.16;22.86;98560.22;5093152;28;20003;-85
2023/06/04 03:28:15;;;;;;;;;;;;;;;26.45;22.66;98571.59;5094545;28;19935;-85
2023/06/04 03:30:41;;;;;;;;;;;;;;;26.37;23.05;98564.56;5098319;28;19920;-85
2023/06/04 03:33:07;;;;;;;;;;;;;;;26.18;23.58;98569.03;5096028;28;19924;-85
2023/06/04 03:35:33;;;;;;;;;;;;;;;26.25;23.66;98573.69;5097355;28;20010;-86
2023/06/04 03:37:59;;;;;;;;;;;;;;;26.30;24.34;98573.19;5096783;28;19920;-86
2023/06/04 03:40:25;;;;;;;;;;;;;;;26.39;24.17;98581.81;5095100;28;20398;-86
2023/06/04 03:42:51;;;;;;;;;;;;;;;26.93;23.66;98573.69;5091702;28;19950;-86
2023/06/04 03:45:17;;;;;;;;;;;;;;;26.74;24.04;98573.31;5094682;28;19953;-86
2023/06/04 03:47:43;;;;;;;;;;;;;;;27.15;23.54;98569.84;5091713;28;20341;-86
2023/06/04 03:50:09;;;;;;;;;;;;;;;27.22;23.45;98575.31;5097995;28;19959;-87
2023/06/04 03:52:35;;;;;;;;;;;;;;;27.25;23.44;98574.44;5101279;28;20007;-86
2023/06/04 03:55:02;;;;;;;;;;;;;;;27.60;22.80;98569.84;5093610;28;19927;-86
2023/06/04 03:57:28;;;;;;;;;;;;;;;27.96;22.21;98567.56;5097141;28;19923;-86
2023/06/04 03:59:55;;;;;;;;;;;;;;;27.74;23.33;98574.28;5091936;28;19946;-86
2023/06/04 04:02:21;;;;;;;;;;;;;;;27.75;23.30;98568.19;5092298;28;19928;-85
2023/06/04 04:04:48;;;;;;;;;;;;;;;27.52;23.00;98574.09;5105191;28;20004;-85
2023/06/04 04:07:15;;;;;;;;;;;;;;;27.76;23.28;98572.59;5092895;28;19920;-86
2023/06/04 04:09:41;;;;;;;;;;;;;;;28.14;23.03;98566.28;5105500;28;20371;-86
2023/06/04 04:12:07;;;;;;;;;;;;;;;28.37;22.23;98568.78;5099711;28;20240;-86
2023/06/04 04:14:33;;;;;;;;;;;;;;;28.31;22.89;98568.53;5091135;28;19924;-86
2023/06/04 04:16:59;;;;;;;;;;;;;;;28.11;23.29;98572.81;5087264;28;19927;-86
2023/06/04 04:19:25;;;;;;;;;;;;;;;28.41;23.14;98573.06;5074403;28;19990;-86
2023/06/04 04:21:51;;;;;;;;;;;;;;;28.46;22.78;98564.03;5095929;28;19920;-86
2023/06/04 04:24:24;;;;;;;;;;;;;;;28.65;22.51;98563.03;5089762;28;19931;-87
2023/06/04 04:26:53;;;;;;;;;;;;;;;28.74;22.75;98565.16;5089349;28;19920;-86
2023/06/04 04:29:22;;;;;;;;;;;;;;;28.72;22.89;98562.81;5103364;28;19920;-86
2023/06/04 04:31:49;;;;;;;;;;;;;;;28.70;22.69;98564.50;5092494;28;19920;-86
2023/06/04 04:34:15;;;;;;;;;;;;;;;28.97;22.14;98555.50;5085635;28;19923;-86
2023/06/04 04:36:41;;;;;;;;;;;;;;;29.34;21.80;98555.41;5082908;28;19928;-86
2023/06/04 04:39:07;;;;;;;;;;;;;;;29.56;21.75;98557.47;5086986;28;19931;-86
2023/06/04 04:41:33;;;;;;;;;;;;;;;29.39;22.21;98556.84;5083875;28;19920;-86
2023/06/04 04:44:03;;;;;;;;;;;;;;;29.57;21.32;98562.66;5086705;28;20311;-86
2023/06/04 04:46:29;;;;;;;;;;;;;;;29.18;22.19;98558.41;5084982;28;19920;-86
2023/06/04 04:48:55;;;;;;;;;;;;;;;29.52;22.25;98562.47;5081368;28;19936;-86
2023/06/04 04:51:21;;;;;;;;;;;;;;;29.69;21.97;98566.66;5083341;28;19924;-86
2023/06/04 04:53:47;;;;;;;;;;;;;;;30.39;21.51;98572.50;5090132;28;19924;-86
2023/06/04 04:56:13;;;;;;;;;;;;;;;30.40;20.67;98571.25;5092776;28;19924;-86
2023/06/04 04:58:39;;;;;;;;;;;;;;;30.03;20.98;98564.59;5091990;28;19946;-86
2023/06/04 05:01:05;;;;;;;;;;;;;;;30.26;21.90;98568.97;5089675;28;20015;-86
2023/06/04 05:03:31;;;;;;;;;;;;;;;30.43;21.10;98567.50;5089233;28;19962;-86
2023/06/04 05:05:57;;;;;;;;;;;;;;;30.53;21.34;98577.59;5085336;28;19959;-86
2023/06/04 05:08:23;;;;;;;;;;;;;;;30.47;21.22;98576.63;5097912;28;20311;-87
2023/06/04 05:10:50;;;;;;;;;;;;;;;30.39;20.99;98581.00;5094126;28;19935;-86
2023/06/04 05:13:17;;;;;;;;;;;;;;;30.37;20.65;98589.19;5090701;28;19968;-87
2023/06/04 05:15:43;;;;;;;;;;;;;;;30.08;22.47;98578.13;5091392;28;19920;-86
2023/06/04 05:18:09;;;;;;;;;;;;;;;30.47;21.69;98584.34;5094714;28;19920;-86
2023/06/04 05:20:37;;;;;;;;;;;;;;;30.94;21.39;98578.41;5098084;28;20017;-86
2023/06/04 05:23:03;;;;;;;;;;;;;;;30.93;20.91;98579.63;5090393;28;20391;-87
2023/06/04 05:25:30;;;;;;;;;;;;;;;30.55;21.59;98575.09;5102056;28;20298;-87
2023/06/04 05:27:56;;;;;;;;;;;;;;;30.70;21.48;98581.75;5091560;28;20011;-86
2023/06/04 05:30:22;;;;;;;;;;;;;;;31.48;20.19;98567.13;5094477;28;19995;-87
2023/06/04 05:32:50;;;;;;;;;;;;;;;31.17;20.65;98575.75;5093313;28;19943;-87
2023/06/04 05:35:16;;;;;;;;;;;;;;;31.15;21.58;98583.97;5092418;28;19924;-88
2023/06/04 05:37:45;;;;;;;;;;;;;;;31.08;20.84;98583.47;5088431;28;20286;-87
2023/06/04 05:40:11;;;;;;;;;;;;;;;31.31;20.66;98580.03;5094421;28;19920;-87
2023/06/04 05:42:37;;;;;;;;;;;;;;;31.20;21.07;98577.63;5092199;28;19967;-87
2023/06/04 05:45:04;;;;;;;;;;;;;;;31.38;21.73;98577.66;5093365;28;19924;-87
2023/06/04 05:47:31;;;;;;;;;;;;;;;31.43;21.39;98579.13;5094524;28;19920;-87
2023/06/04 05:49:57;;;;;;;;;;;;;;;31.58;20.97;98574.38;5091477;28;19920;-87
2023/06/04 05:52:23;;;;;;;;;;;;;;;31.56;22.14;98579.75;5076613;28;19927;-85
2023/06/04 05:54:50;;;;;;;;;;;;;;;31.79;20.94;98584.78;5095249;28;19959;-85
2023/06/04 05:57:16;;;;;;;;;;;;;;;31.95;21.01;98587.28;5086184;28;19956;-86
2023/06/04 05:59:42;;;;;;;;;;;;;;;32.31;21.47;98594.97;5094746;28;19970;-85
2023/06/04 06:02:08;;;;;;;;;;;;;;;32.54;20.53;98591.44;5098818;28;20340;-86
2023/06/04 06:04:34;;;;;;;;;;;;;;;32.55;20.33;98590.16;5097632;28;19919;-85
2023/06/04 06:07:00;;;;;;;;;;;;;;;32.66;19.60;98595.31;5097096;28;19921;-86
2023/06/04 06:09:26;;;;;;;;;;;;;;;32.34;20.32;98590.38;5099918;28;19924;-86
2023/06/04 06:11:52;;;;;;;;;;;;;;;32.51;19.69;98594.47;5095381;28;19974;-85
2023/06/04 06:14:18;;;;;;;;;;;;;;;32.97;18.37;98590.13;5089848;28;19932;-85
2023/06/04 06:16:45;;;;;;;;;;;;;;;32.96;19.63;98594.22;5103645;28;19919;-86
2023/06/04 06:19:11;;;;;;;;;;;;;;;32.93;18.32;98589.50;5092967;28;19920;-86
2023/06/04 06:21:37;;;;;;;;;;;;;;;33.20;18.27;98586.53;5093948;28;20299;-86
2023/06/04 06:24:03;;;;;;;;;;;;;;;32.77;17.16;98589.13;5088748;28;20337;-89
2023/06/04 06:26:29;;;;;;;;;;;;;;;31.87;17.39;98588.88;5089507;28;19920;-87
2023/06/04 06:28:55;;;;;;;;;;;;;;;31.30;17.97;98592.63;5093539;28;20501;-86
2023/06/04 06:31:22;;;;;;;;;;;;;;;31.72;18.81;98593.59;5090785;28;19924;-86
2023/06/04 06:33:48;;;;;;;;;;;;;;;32.20;18.20;98593.88;5073779;28;19967;-86
2023/06/04 06:36:14;;;;;;;;;;;;;;;32.23;18.51;98601.47;5090243;28;20497;-87
2023/06/04 06:38:40;;;;;;;;;;;;;;;32.40;19.32;98592.09;5091847;28;19931;-84
2023/06/04 06:41:06;;;;;;;;;;;;;;;32.39;19.02;98584.03;5091174;28;19916;-84
2023/06/04 06:43:33;;;;;;;;;;;;;;;32.12;19.25;98589.78;5076866;28;19931;-83
2023/06/04 06:45:59;;;;;;;;;;;;;;;32.36;19.37;98588.63;5097042;28;19920;-84
2023/06/04 06:48:25;;;;;;;;;;;;;;;32.85;18.29;98593.19;5088945;28;19999;-84
2023/06/04 06:50:51;;;;;;;;;;;;;;;33.03;18.16;98590.25;5095448;28;19955;-83
2023/06/04 06:53:17;;;;;;;;;;;;;;;33.33;17.29;98595.59;5095455;28;20431;-84
2023/06/04 06:55:43;;;;;;;;;;;;;;;33.47;15.79;98594.06;5098066;28;19919;-82
2023/06/04 06:58:09;;;;;;;;;;;;;;;33.21;17.87;98602.31;5093994;28;19924;-81
2023/06/04 07:00:35;;;;;;;;;;;;;;;32.76;17.62;98602.56;5099679;28;19916;-82
2023/06/04 07:03:01;;;;;;;;;;;;;;;32.14;16.47;98601.50;5074796;28;19920;-83
2023/06/04 07:05:27;;;;;;;;;;;;;;;32.27;17.15;98600.03;5088598;28;19917;-82
2023/06/04 07:07:54;;;;;;;;;;;;;;;32.48;16.30;98599.00;5101236;28;19920;-82
2023/06/04 07:10:20;;;;;;;;;;;;;;;32.46;17.91;98600.75;5086016;28;20321;-86
2023/06/04 07:12:46;;;;;;;;;;;;;;;32.39;17.83;98601.09;5094551;28;20089;-86
2023/06/04 07:15:13;;;;;;;;;;;;;;;32.03;16.40;98605.59;5075355;28;19970;-89
2023/06/04 07:17:39;;;;;;;;;;;;;;;32.00;17.71;98598.03;5084730;28;19932;-89
2023/06/04 07:20:06;;;;;;;;;;;;;;;32.24;16.45;98605.88;5101323;28;20276;-88
2023/06/04 07:22:33;;;;;;;;;;;;;;;32.02;16.18;98604.03;5106350;28;19924;-86
2023/06/04 07:24:59;;;;;;;;;;;;;;;32.12;17.09;98599.09;5105628;28;19975;-88
2023/06/04 07:27:26;;;;;;;;;;;;;;;31.26;17.19;98603.34;5104888;28;19927;-87
2023/06/04 07:29:52;;;;;;;;;;;;;;;29.83;19.53;98598.13;5097037;28;19959;-88
2023/06/04 07:32:18;;;;;;;;;;;;;;;29.49;20.17;98603.00;5101257;28;19965;-87
2023/06/04 07:34:45;;;;;;;;;;;;;;;29.74;16.87;98595.19;5100063;28;19920;-87
2023/06/04 07:37:12;;;;;;;;;;;;;;;29.55;18.15;98601.16;5098049;28;20643;-88
2023/06/04 07:39:38;;;;;;;;;;;;;;;28.96;19.17;98597.13;5096395;28;20011;-88
2023/06/04 07:42:07;;;;;;;;;;;;;;;29.95;18.76;98594.41;5097373;28;19920;-87
2023/06/04 07:44:33;;;;;;;;;;;;;;;30.86;18.55;98594.09;5104623;28;19924;-86
2023/06/04 07:46:59;;;;;;;;;;;;;;;30.15;18.76;98587.63;5077938;28;19920;-88
2023/06/04 07:49:25;;;;;;;;;;;;;;;29.91;17.46;98595.81;5105503;28;20012;-86
2023/06/04 07:51:51;;;;;;;;;;;;;;;31.08;17.69;98586.31;5081655;28;19921;-86
2023/06/04 07:54:17;;;;;;;;;;;;;;;31.70;16.81;98581.16;5082158;28;20391;-86
2023/06/04 07:56:43;;;;;;;;;;;;;;;30.19;17.63;98591.09;5088074;28;19924;-87
2023/06/04 07:59:09;;;;;;;;;;;;;;;31.47;16.84;98590.31;5091337;28;20333;-84
2023/06/04 08:01:35;;;;;;;;;;;;;;;31.17;16.83;98594.81;5085280;28;19916;-88
2023/06/04 08:04:01;;;;;;;;;;;;;;;30.70;18.08;98600.81;5091740;28;19928;-85
2023/06/04 08:06:28;;;;;;;;;;;;;;;28.26;19.48;98596.56;5094839;28;20375;-87
2023/06/04 08:08:54;;;;;;;;;;;;;;;28.19;20.47;98594.75;5090354;28;19920;-86
2023/06/04 08:11:22;;;;;;;;;;;;;;;28.70;19.42;98606.88;5096293;28;19927;-87
2023/06/04 08:13:48;;;;;;;;;;;;;;;29.56;18.49;98597.09;5089964;28;20038;-86
2023/06/04 08:16:16;;;;;;;;;;;;;;;31.19;17.17;98603.66;5092606;28;20213;-85
2023/06/04 08:18:42;;;;;;;;;;;;;;;30.64;16.64;98606.28;5091222;28;19926;-87
2023/06/04 08:21:09;;;;;;;;;;;;;;;29.78;17.83;98607.19;5090786;28;20010;-88
2023/06/04 08:23:35;;;;;;;;;;;;;;;29.99;17.24;98612.06;5083972;28;19920;-88
2023/06/04 08:26:01;;;;;;;;;;;;;;;30.81;17.20;98606.81;5098326;28;20273;-86
2023/06/04 08:28:27;;;;;;;;;;;;;;;31.41;16.71;98607.94;5091687;28;19924;-87
2023/06/04 08:30:53;;;;;;;;;;;;;;;31.78;16.33;98600.25;5091094;28;19928;-86
2023/06/04 08:33:20;;;;;;;;;;;;;;;32.46;17.10;98598.72;5095513;28;19939;-86
2023/06/04 08:35:46;;;;;;;;;;;;;;;30.83;16.58;98604.31;5078945;28;19985;-87
2023/06/04 08:38:12;;;;;;;;;;;;;;;31.57;15.45;98601.19;5101524;28;19988;-86
2023/06/04 08:40:38;;;;;;;;;;;;;;;32.44;15.13;98595.53;5093675;28;19923;-85
2023/06/04 08:43:04;;;;;;;;;;;;;;;32.46;14.71;98604.41;5090529;28;19956;-84
2023/06/04 08:45:32;;;;;;;;;;;;;;;32.93;15.41;98598.03;5090532;28;19964;-84
2023/06/04 08:47:59;;;;;;;;;;;;;;;31.74;16.41;98604.50;5084106;28;19920;-83
2023/06/04 08:50:25;;;;;;;;;;;;;;;30.83;17.85;98606.38;5093259;28;19950;-84
2023/06/04 08:52:53;;;;;;;;;;;;;;;28.78;19.29;98605.41;5092350;28;19912;-82
2023/06/04 08:55:19;;;;;;;;;;;;;;;28.63;18.93;98607.91;5102301;28;20295;-81
2023/06/04 08:57:46;;;;;;;;;;;;;;;28.95;18.65;98606.84;5113492;28;19920;-81
2023/06/04 09:00:13;;;;;;;;;;;;;;;30.74;15.52;98595.78;5090673;28;19962;-81
2023/06/04 09:02:39;;;;;;;;;;;;;;;31.61;17.36;98604.66;5098864;28;20414;-81
2023/06/04 09:05:08;;;;;;;;;;;;;;;29.55;17.77;98601.94;5095306;28;20379;-81
2023/06/04 09:07:35;;;;;;;;;;;;;;;28.70;19.38;98607.69;5092595;28;19959;-83
2023/06/04 09:10:02;;;;;;;;;;;;;;;28.43;19.11;98600.84;5110536;28;19916;-83
2023/06/04 09:12:29;;;;;;;;;;;;;;;29.54;17.32;98603.22;5098748;28;19967;-82
2023/06/04 09:14:55;;;;;;;;;;;;;;;29.51;16.48;98606.94;5101082;28;19924;-83
2023/06/04 09:17:22;;;;;;;;;;;;;;;29.93;17.37;98605.44;5076431;28;19920;-84
2023/06/04 09:19:50;;;;;;;;;;;;;;;31.37;17.02;98606.50;5091375;28;20038;-83
2023/06/04 09:22:16;;;;;;;;;;;;;;;32.08;16.96;98607.03;5095220;28;20337;-80
2023/06/04 09:24:46;;;;;;;;;;;;;;;32.52;16.39;98613.06;5090435;28;20011;-80
2023/06/04 09:27:13;;;;;;;;;;;;;;;32.47;15.97;98605.97;5076427;28;19917;-80
2023/06/04 09:29:40;;;;;;;;;;;;;;;32.44;16.06;98609.75;5094324;28;19927;-81
2023/06/04 09:32:06;;;;;;;;;;;;;;;31.75;15.71;98606.06;5098721;28;19927;-80
2023/06/04 09:34:32;;;;;;;;;;;;;;;31.72;15.06;98613.50;5100084;28;19942;-79
2023/06/04 09:36:58;;;;;;;;;;;;;;;31.71;15.57;98613.97;5101023;28;19920;-79
2023/06/04 09:39:24;;;;;;;;;;;;;;;32.86;14.52;98603.31;5094554;28;19955;-79
2023/06/04 09:42:00;;;;;;;;;;;;;;;31.69;15.50;98607.97;5100512;28;19930;-80
2023/06/04 09:44:27;;;;;;;;;;;;;;;32.39;16.37;98601.09;5090981;28;19990;-80
2023/06/04 09:46:54;;;;;;;;;;;;;;;32.61;15.17;98610.19;5094498;28;19978;-81
2023/06/04 09:49:20;;;;;;;;;;;;;;;32.84;14.58;98608.69;5102923;28;19920;-81
2023/06/04 09:51:47;;;;;;;;;;;;;;;31.71;14.52;98605.44;5101869;28;19927;-81
2023/06/04 09:54:13;;;;;;;;;;;;;;;29.81;16.38;98613.97;5094654;28;19924;-80
2023/06/04 09:56:40;;;;;;;;;;;;;;;30.32;16.43;98609.59;5087316;28;19946;-81
2023/06/04 09:59:07;;;;;;;;;;;;;;;31.55;15.52;98603.72;5089468;28;20379;-80
2023/06/04 10:01:35;;;;;;;;;;;;;;;32.11;15.44;98602.44;5093817;28;20429;-81
2023/06/04 10:04:06;;;;;;;;;;;;;;;32.61;16.85;98599.63;5080574;28;19927;-81
2023/06/04 10:06:33;;;;;;;;;;;;;;;31.79;16.24;98595.34;5093177;28;20471;-81
2023/06/04 10:09:04;;;;;;;;;;;;;;;29.39;17.38;98605.75;5095860;28;20428;-81
2023/06/04 10:12:02;;;;;;;;;;;;;;;30.15;19.18;98605.41;5092957;28;19927;-82
2023/06/04 10:14:35;;;;;;;;;;;;;;;30.14;17.14;98606.66;5031788;28;20019;-82
2023/06/04 10:17:02;;;;;;;;;;;;;;;31.36;16.20;98607.78;5095901;28;20273;-81
2023/06/04 10:19:30;;;;;;;;;;;;;;;30.84;15.28;98605.09;5095783;28;19920;-82
2023/06/04 10:21:56;;;;;;;;;;;;;;;31.63;16.47;98607.03;5091123;28;19920;-81
2023/06/04 10:24:24;;;;;;;;;;;;;;;29.45;17.70;98613.66;5093160;28;20440;-80
2023/06/04 10:26:51;;;;;;;;;;;;;;;32.01;16.75;98607.34;5080025;28;20031;-80
2023/06/04 10:29:18;;;;;;;;;;;;;;;30.60;16.82;98605.66;5090418;28;19928;-81
2023/06/04 10:31:44;;;;;;;;;;;;;;;32.00;16.01;98598.03;5093918;28;20265;-83
2023/06/04 10:34:11;;;;;;;;;;;;;;;32.93;14.98;98600.88;5095318;28;19946;-80
2023/06/04 10:36:45;;;;;;;;;;;;;;;33.30;16.06;98601.47;5095684;28;19924;-80
2023/06/04 10:39:11;;;;;;;;;;;;;;;34.07;15.58;98590.91;5107336;28;20317;-82
2023/06/04 10:41:37;;;;;;;;;;;;;;;33.06;15.66;98598.63;5081637;28;20322;-83
2023/06/04 10:44:03;;;;;;;;;;;;;;;32.22;14.92;98591.34;5093296;28;19920;-82
2023/06/04 10:46:42;;;;;;;;;;;;;;;32.06;16.78;98592.50;5090359;28;19925;-82
2023/06/04 10:49:15;;;;;;;;;;;;;;;33.40;16.38;98591.59;5087507;28;19920;-87
2023/06/04 10:51:41;;;;;;;;;;;;;;;34.36;15.18;98579.47;5083335;28;20283;-86
2023/06/04 10:54:07;;;;;;;;;;;;;;;34.29;16.12;98591.28;5089813;28;19920;-88
2023/06/04 10:56:37;;;;;;;;;;;;;;;34.88;15.54;98592.00;5095199;28;19972;-86
2023/06/04 10:59:13;;;;;;;;;;;;;;;33.82;15.09;98591.41;5091957;28;19927;-88
2023/06/04 11:01:39;;;;;;;;;;;;;;;33.92;15.68;98593.69;5089425;28;19920;-88
2023/06/04 11:04:05;;;;;;;;;;;;;;;34.42;15.66;98594.63;5095561;28;19981;-88
2023/06/04 11:06:32;;;;;;;;;;;;;;;35.27;14.75;98589.72;5094833;28;19920;-86
2023/06/04 11:09:07;;;;;;;;;;;;;;;34.08;15.22;98583.91;5100101;28;19920;-88
2023/06/04 11:11:33;;;;;;;;;;;;;;;34.41;14.26;98586.53;5087096;28;19959;-88
2023/06/04 11:14:09;;;;;;;;;;;;;;;33.55;17.32;98585.97;5093131;28;19949;-86
2023/06/04 11:16:35;;;;;;;;;;;;;;;33.11;16.18;98582.94;5094505;28;20405;-84
2023/06/04 11:19:02;;;;;;;;;;;;;;;34.40;17.05;98579.28;5094048;28;19978;-85
2023/06/04 11:21:28;;;;;;;;;;;;;;;34.27;14.36;98584.50;5084493;28;19924;-85
2023/06/04 11:23:58;;;;;;;;;;;;;;;34.50;15.84;98583.59;5084225;28;20397;-85
2023/06/04 11:26:33;;;;;;;;;;;;;;;33.32;15.99;98590.38;5093669;28;20341;-89
2023/06/04 11:29:00;;;;;;;;;;;;;;;34.75;14.12;98580.91;5081784;28;19943;-86
2023/06/04 11:31:26;;;;;;;;;;;;;;;35.70;16.06;98587.94;5084320;28;19916;-88
2023/06/04 11:33:53;;;;;;;;;;;;;;;34.89;15.15;98582.16;5091655;28;19920;-86
2023/06/04 11:36:26;;;;;;;;;;;;;;;32.84;15.31;98589.53;5093896;28;19927;-87
2023/06/04 11:39:00;;;;;;;;;;;;;;;33.91;16.22;98580.72;5088439;28;19920;-87
2023/06/04 11:41:30;;;;;;;;;;;;;;;34.75;15.79;98585.84;5094511;28;19920;-87
2023/06/04 11:43:57;;;;;;;;;;;;;;;34.62;17.53;98585.38;5092653;28;20266;-88
2023/06/04 11:46:23;;;;;;;;;;;;;;;34.80;16.00;98581.50;5093059;28;19924;-86
2023/06/04 11:48:53;;;;;;;;;;;;;;;33.27;16.73;98585.34;5088369;28;19920;-87
2023/06/04 11:51:20;;;;;;;;;;;;;;;32.09;16.87;98583.81;5096130;28;19923;-88
2023/06/04 11:53:46;;;;;;;;;;;;;;;33.12;16.47;98584.50;5092370;28;19920;-85
2023/06/04 11:56:13;;;;;;;;;;;;;;;32.68;16.12;98582.19;5091362;28;19924;-87
2023/06/04 11:58:40;;;;;;;;;;;;;;;33.47;15.41;98579.06;5090665;28;19956;-86
2023/06/04 12:01:07;;;;;;;;;;;;;;;32.47;16.53;98582.41;5093732;28;20358;-86
2023/06/04 12:03:35;;;;;;;;;;;;;;;33.49;15.27;98577.28;5093402;28;19927;-86
2023/06/04 12:06:11;;;;;;;;;;;;;;;33.59;15.82;98575.97;5093944;28;20011;-86
2023/06/04 12:08:47;;;;;;;;;;;;;;;34.11;15.74;98571.53;5073751;28;20329;-88
2023/06/04 12:11:37;;;;;;;;;;;;;;;33.59;14.96;98578.00;5089010;28;19923;-87
2023/06/04 12:14:04;;;;;;;;;;;;;;;32.39;16.85;98576.31;5060889;28;19920;-89
2023/06/04 12:16:31;;;;;;;;;;;;;;;32.26;17.24;98586.28;5094279;28;19927;-86
2023/06/04 12:19:10;;;;;;;;;;;;;;;33.46;15.99;98588.84;5092406;28;19931;-87
2023/06/04 12:21:36;;;;;;;;;;;;;;;32.21;16.59;98581.28;5094073;28;19916;-88
2023/06/04 12:24:10;;;;;;;;;;;;;;;34.31;14.65;98579.41;5092080;28;19932;-86
2023/06/04 12:26:43;;;;;;;;;;;;;;;32.84;15.69;98580.25;5094578;28;19924;-87
2023/06/04 12:29:10;;;;;;;;;;;;;;;32.98;15.80;98579.53;5099316;28;20031;-86
2023/06/04 12:31:40;;;;;;;;;;;;;;;33.94;15.65;98579.75;5092791;28;19935;-86
2023/06/04 12:34:09;;;;;;;;;;;;;;;35.42;13.25;98571.25;5092658;28;20291;-87
2023/06/04 12:36:36;;;;;;;;;;;;;;;36.05;13.11;98572.25;5068402;28;19932;-86
2023/06/04 12:39:03;;;;;;;;;;;;;;;36.52;12.74;98568.00;5090004;28;20341;-85
2023/06/04 12:41:29;;;;;;;;;;;;;;;36.25;13.99;98571.38;5085806;28;19932;-85
2023/06/04 12:43:56;;;;;;;;;;;;;;;36.58;14.23;98565.97;5091211;28;19993;-85
2023/06/04 12:46:23;;;;;;;;;;;;;;;36.67;13.28;98567.84;5071654;28;19928;-86
2023/06/04 12:48:52;;;;;;;;;;;;;;;36.29;14.26;98576.88;5089760;28;19920;-86